createdAt,value
2019-04-11T00:02:25.458Z,20.35
2019-04-11T00:04:52.699Z,20.82
2019-04-11T00:07:19.003Z,23.40
2019-04-11T00:09:47.795Z,17.35
2019-04-11T00:12:19.318Z,22.50
2019-04-11T00:14:48.354Z,21.50
2019-04-11T00:17:17.430Z,18.05
2019-04-11T00:19:53.742Z,21.15
2019-04-11T00:22:19.467Z,22.22
2019-04-11T00:24:53.207Z,20.80
2019-04-11T00:27:25.290Z,20.62
2019-04-11T00:29:57.868Z,20.75
2019-04-11T00:32:25.332Z,20.40
2019-04-11T00:34:51.587Z,19.17
2019-04-11T00:37:19.010Z,22.90
2019-04-11T00:39:47.843Z,22.85
2019-04-11T00:42:14.593Z,21.80
2019-04-11T00:44:47.996Z,19.73
2019-04-11T00:47:13.050Z,21.57
2019-04-11T00:49:44.103Z,19.07
2019-04-11T00:52:16.255Z,22.27
2019-04-11T00:54:44.330Z,21.05
2019-04-11T00:57:10.698Z,16.97
2019-04-11T00:59:44.675Z,20.35
2019-04-11T01:02:09.391Z,16.35
2019-04-11T01:04:45.348Z,21.10
2019-04-11T01:07:11.314Z,20.00
2019-04-11T01:09:37.484Z,20.10
2019-04-11T01:12:04.633Z,20.90
2019-04-11T01:15:17.875Z,19.12
2019-04-11T01:16:59.182Z,20.90
2019-04-11T01:19:27.536Z,22.27
2019-04-11T01:21:53.667Z,19.32
2019-04-11T01:24:22.408Z,19.98
2019-04-11T01:26:51.777Z,20.32
2019-04-11T01:29:19.561Z,19.75
2019-04-11T01:31:47.826Z,18.62
2019-04-11T01:34:20.240Z,20.88
2019-04-11T01:36:49.436Z,18.12
2019-04-11T01:39:21.842Z,20.95
2019-04-11T01:41:48.866Z,23.52
2019-04-11T01:44:22.743Z,21.65
2019-04-11T01:46:46.491Z,14.10
2019-04-11T01:49:18.480Z,20.90
2019-04-11T01:51:45.550Z,20.60
2019-04-11T01:54:13.572Z,23.73
2019-04-11T01:56:41.093Z,19.62
2019-04-11T01:59:07.995Z,21.42
2019-04-11T02:01:54.885Z,23.20
2019-04-11T02:04:26.131Z,23.98
2019-04-11T02:06:54.485Z,24.75
2019-04-11T02:09:22.023Z,21.20
2019-04-11T02:11:50.187Z,22.73
2019-04-11T02:14:21.468Z,21.80
2019-04-11T02:16:55.685Z,23.77
2019-04-11T02:19:28.609Z,20.68
2019-04-11T02:21:58.556Z,21.85
2019-04-11T02:24:37.672Z,17.82
2019-04-11T02:27:21.170Z,20.05
2019-04-11T02:29:48.881Z,22.58
2019-04-11T02:32:15.764Z,19.98
2019-04-11T02:34:43.909Z,22.20
2019-04-11T02:37:10.336Z,20.90
2019-04-11T02:39:38.494Z,23.62
2019-04-11T02:42:06.348Z,19.17
2019-04-11T02:44:50.930Z,21.37
2019-04-11T02:47:09.848Z,22.13
2019-04-11T02:49:39.349Z,18.35
2019-04-11T02:52:02.961Z,19.07
2019-04-11T02:54:33.863Z,19.87
2019-04-11T02:57:03.606Z,24.40
2019-04-11T02:59:30.516Z,21.85
2019-04-11T03:02:00.463Z,19.62
2019-04-11T03:04:31.142Z,22.67
2019-04-11T03:06:59.854Z,22.48
2019-04-11T03:09:51.049Z,18.00
2019-04-11T03:11:58.936Z,24.92
2019-04-11T03:14:27.734Z,24.65
2019-04-11T03:17:03.649Z,22.00
2019-04-11T03:19:37.562Z,19.90
2019-04-11T03:21:54.303Z,15.10
2019-04-11T03:24:24.452Z,22.80
2019-04-11T03:26:56.552Z,20.92
2019-04-11T03:29:30.903Z,26.35
2019-04-11T03:39:48.760Z,21.55
2019-04-11T03:42:10.953Z,20.88
2019-04-11T03:44:28.612Z,20.70
2019-04-11T03:47:08.415Z,26.90
2019-04-11T03:49:31.735Z,25.68
2019-04-11T03:51:50.735Z,22.55
2019-04-11T03:54:17.999Z,22.60
2019-04-11T04:00:21.607Z,25.50
2019-04-11T04:03:09.048Z,23.12
2019-04-11T04:08:44.464Z,23.25
2019-04-11T04:11:22.168Z,24.23
2019-04-11T04:14:24.978Z,22.52
2019-04-11T04:17:32.981Z,18.98
2019-04-11T04:20:08.759Z,22.98
2019-04-11T04:23:03.177Z,21.68
2019-04-11T04:29:02.145Z,26.48
2019-04-11T04:31:30.633Z,24.80
2019-04-11T04:33:57.737Z,23.92
2019-04-11T04:36:26.744Z,26.40
2019-04-11T04:38:54.560Z,22.48
2019-04-11T04:41:35.127Z,24.27
2019-04-11T04:43:54.695Z,21.30
2019-04-11T04:46:34.853Z,23.65
2019-04-11T04:48:51.294Z,22.02
2019-04-11T04:51:18.339Z,22.65
2019-04-11T04:53:57.728Z,25.10
2019-04-11T04:56:20.244Z,23.15
2019-04-11T04:58:44.369Z,24.18
2019-04-11T05:01:12.515Z,27.62
2019-04-11T05:03:40.436Z,29.37
2019-04-11T05:06:07.709Z,29.80
2019-04-11T05:08:34.761Z,31.70
2019-04-11T05:11:02.181Z,29.57
2019-04-11T05:13:30.019Z,27.62
2019-04-11T05:16:06.865Z,33.20
2019-04-11T05:18:25.657Z,22.73
2019-04-11T05:20:52.734Z,22.45
2019-04-11T05:23:18.927Z,24.50
2019-04-11T05:25:45.204Z,23.55
2019-04-11T05:28:12.041Z,23.35
2019-04-11T05:30:39.835Z,28.45
2019-04-11T05:33:06.104Z,30.40
2019-04-11T05:35:33.006Z,23.85
2019-04-11T05:38:00.394Z,27.00
2019-04-11T05:40:26.481Z,28.25
2019-04-11T05:42:54.134Z,22.65
2019-04-11T05:45:22.572Z,24.85
2019-04-11T05:47:50.917Z,20.92
2019-04-11T05:50:22.164Z,25.17
2019-04-11T05:52:48.399Z,22.87
2019-04-11T05:55:15.519Z,29.82
2019-04-11T05:57:44.769Z,26.10
2019-04-11T06:00:30.951Z,29.37
2019-04-11T06:02:59.669Z,26.52
2019-04-11T06:05:35.481Z,22.62
2019-04-11T06:08:05.445Z,27.10
2019-04-11T06:10:33.871Z,19.70
2019-04-11T06:13:12.066Z,25.97
2019-04-11T06:15:45.813Z,25.92
2019-04-11T06:18:26.224Z,22.10
2019-04-11T06:20:45.002Z,17.90
2019-04-11T06:23:31.827Z,23.20
2019-04-11T06:26:10.458Z,21.00
2019-04-11T06:28:39.135Z,19.98
2019-04-11T06:31:13.775Z,21.80
2019-04-11T06:33:42.858Z,24.27
2019-04-11T06:36:21.005Z,32.42
2019-04-11T06:38:51.998Z,20.77
2019-04-11T06:41:26.328Z,23.83
2019-04-11T06:44:04.703Z,21.52
2019-04-11T06:46:55.788Z,21.07
2019-04-11T06:49:27.060Z,25.12
2019-04-11T06:51:55.164Z,19.37
2019-04-11T06:54:23.376Z,23.70
2019-04-11T06:56:52.099Z,22.70
2019-04-11T06:59:20.640Z,20.75
2019-04-11T07:01:47.576Z,24.43
2019-04-11T07:04:15.668Z,27.55
2019-04-11T07:06:43.930Z,24.07
2019-04-11T07:09:17.632Z,24.37
2019-04-11T07:11:48.573Z,26.15
2019-04-11T07:14:16.654Z,21.95
2019-04-11T07:17:06.900Z,20.77
2019-04-11T07:19:33.800Z,23.50
2019-04-11T07:22:00.298Z,20.92
2019-04-11T07:24:28.337Z,22.00
2019-04-11T07:26:56.466Z,20.65
2019-04-11T07:29:27.286Z,20.30
2019-04-11T07:32:09.385Z,23.05
2019-04-11T07:34:39.669Z,24.80
2019-04-11T07:37:25.994Z,14.93
2019-04-11T07:39:58.473Z,22.40
2019-04-11T07:42:26.667Z,19.87
2019-04-11T07:44:57.689Z,23.85
2019-04-11T07:49:58.209Z,17.30
2019-04-11T07:52:25.226Z,18.52
2019-04-11T07:54:51.490Z,18.42
2019-04-11T07:57:31.834Z,17.15
2019-04-11T08:00:03.765Z,19.12
2019-04-11T08:02:38.154Z,18.95
2019-04-11T08:05:11.080Z,17.95
2019-04-11T08:07:51.866Z,15.50
2019-04-11T08:10:25.901Z,13.22
2019-04-11T08:12:54.110Z,17.92
2019-04-11T08:15:29.337Z,14.98
2019-04-11T08:17:57.541Z,16.62
2019-04-11T08:20:42.288Z,17.55
2019-04-11T08:23:09.720Z,14.85
2019-04-11T08:25:47.386Z,14.73
2019-04-11T08:28:14.628Z,14.93
2019-04-11T08:30:55.190Z,15.93
2019-04-11T08:33:24.549Z,18.70
2019-04-11T08:35:57.165Z,16.80
2019-04-11T08:38:26.597Z,16.02
2019-04-11T08:40:55.487Z,15.23
2019-04-11T08:43:29.578Z,16.02
2019-04-11T08:46:06.881Z,15.90
2019-04-11T08:48:35.208Z,16.48
2019-04-11T08:51:12.525Z,18.15
2019-04-11T08:53:44.713Z,14.83
2019-04-11T08:56:12.880Z,14.28
2019-04-11T08:58:53.140Z,15.03
2019-04-11T09:01:20.735Z,11.17
2019-04-11T09:04:09.218Z,15.63
2019-04-11T09:06:34.847Z,22.42
2019-04-11T09:09:18.807Z,18.73
2019-04-11T09:11:48.829Z,15.15
2019-04-11T09:14:20.029Z,16.60
2019-04-11T09:19:27.254Z,17.07
2019-04-11T09:22:11.000Z,15.32
2019-04-11T09:24:43.134Z,17.32
2019-04-11T09:27:24.792Z,17.35
2019-04-11T09:30:02.555Z,16.37
2019-04-11T09:32:33.765Z,14.40
2019-04-11T09:35:02.066Z,15.15
2019-04-11T09:37:29.547Z,15.53
2019-04-11T09:39:58.049Z,16.82
2019-04-11T09:42:43.120Z,15.00
2019-04-11T09:45:29.816Z,14.63
2019-04-11T09:48:08.367Z,17.10
2019-04-11T09:50:36.645Z,22.52
2019-04-11T09:53:03.628Z,14.68
2019-04-11T09:55:37.770Z,18.02
2019-04-11T09:58:03.939Z,14.98
2019-04-11T10:00:34.958Z,16.32
2019-04-11T10:03:03.005Z,15.70
2019-04-11T10:05:32.024Z,15.15
2019-04-11T10:08:00.135Z,15.78
2019-04-11T10:10:28.912Z,17.25
2019-04-11T10:13:13.952Z,17.57
2019-04-11T10:15:43.180Z,18.52
2019-04-11T10:18:26.046Z,14.28
2019-04-11T10:20:50.856Z,15.13
2019-04-11T10:23:36.721Z,15.28
2019-04-11T10:26:03.597Z,14.68
2019-04-11T10:28:40.334Z,18.40
2019-04-11T10:31:08.575Z,17.55
2019-04-11T10:33:42.827Z,16.95
2019-04-11T10:36:10.922Z,18.05
2019-04-11T10:38:38.970Z,17.27
2019-04-11T10:41:25.228Z,19.05
2019-04-11T10:44:05.565Z,18.05
2019-04-11T10:50:25.730Z,18.37
2019-04-11T10:52:55.071Z,18.02
2019-04-11T10:55:39.877Z,20.32
2019-04-11T10:58:20.629Z,18.55
2019-04-11T11:00:48.849Z,18.25
2019-04-11T11:03:27.358Z,17.65
2019-04-11T11:06:01.466Z,17.48
2019-04-11T11:08:45.976Z,18.25
2019-04-11T11:11:20.549Z,18.85
2019-04-11T11:13:54.513Z,18.73
2019-04-11T11:16:30.570Z,17.17
2019-04-11T11:19:34.623Z,16.73
2019-04-11T11:21:47.322Z,20.48
2019-04-11T11:24:33.860Z,16.52
2019-04-11T11:27:02.953Z,18.30
2019-04-11T11:29:30.077Z,12.28
2019-04-11T11:31:58.143Z,14.13
2019-04-11T11:34:30.437Z,14.47
2019-04-11T11:37:15.837Z,13.00
2019-04-11T11:40:02.722Z,12.58
2019-04-11T11:42:42.789Z,20.52
2019-04-11T11:45:23.617Z,15.03
2019-04-11T11:48:13.652Z,10.80
2019-04-11T11:50:36.545Z,11.12
2019-04-11T11:53:19.125Z,8.58
2019-04-11T11:55:46.225Z,11.78
2019-04-11T11:58:31.118Z,10.70
2019-04-11T12:01:03.666Z,30.60
2019-04-11T12:03:40.506Z,10.38
2019-04-11T12:06:09.767Z,9.70
2019-04-11T12:08:46.659Z,10.28
2019-04-11T12:11:13.720Z,12.75
2019-04-11T12:13:41.795Z,11.35
2019-04-11T12:16:19.063Z,10.30
2019-04-11T12:19:00.943Z,11.57
2019-04-11T12:21:32.112Z,10.65
2019-04-11T12:24:04.298Z,9.05
2019-04-11T12:26:33.317Z,10.58
2019-04-11T12:29:14.298Z,9.88
2019-04-11T12:31:44.014Z,8.65
2019-04-11T12:34:27.656Z,13.13
2019-04-11T12:36:54.694Z,8.83
2019-04-11T12:39:35.864Z,11.73
2019-04-11T12:42:06.824Z,11.40
2019-04-11T12:44:45.838Z,8.73
2019-04-11T12:47:30.798Z,13.10
2019-04-11T12:50:07.903Z,8.58
2019-04-11T12:52:36.062Z,12.78
2019-04-11T12:55:25.380Z,12.70
2019-04-11T12:58:10.314Z,9.88
2019-04-11T13:00:38.679Z,10.95
2019-04-11T13:03:09.988Z,7.87
2019-04-11T13:05:37.949Z,10.48
2019-04-11T13:08:09.338Z,12.40
2019-04-11T13:10:36.557Z,10.18
2019-04-11T13:13:24.860Z,11.20
2019-04-11T13:15:54.629Z,11.25
2019-04-11T13:18:25.617Z,9.93
2019-04-11T13:20:56.310Z,9.48
2019-04-11T13:23:27.461Z,8.70
2019-04-11T13:26:12.219Z,12.35
2019-04-11T13:28:40.181Z,12.37
2019-04-11T13:31:24.832Z,10.75
2019-04-11T13:33:52.970Z,14.20
2019-04-11T13:36:33.003Z,9.80
2019-04-11T13:39:02.470Z,9.23
2019-04-11T13:41:32.161Z,9.18
2019-04-11T13:43:58.951Z,10.53
2019-04-11T13:46:36.148Z,10.65
2019-04-11T13:49:19.702Z,13.08
2019-04-11T13:52:04.542Z,13.32
2019-04-11T13:54:41.334Z,14.93
2019-04-11T13:57:24.522Z,12.90
2019-04-11T14:00:09.544Z,13.13
2019-04-11T14:02:54.704Z,10.00
2019-04-11T14:05:22.026Z,9.75
2019-04-11T14:07:49.301Z,9.68
2019-04-11T14:10:18.882Z,10.70
2019-04-11T14:12:45.759Z,12.33
2019-04-11T14:15:26.429Z,9.85
2019-04-11T14:17:54.615Z,12.80
2019-04-11T14:20:29.712Z,9.50
2019-04-11T14:23:04.436Z,11.35
2019-04-11T14:25:42.225Z,11.43
2019-04-11T14:28:10.257Z,13.18
2019-04-11T14:30:53.488Z,9.73
2019-04-11T14:33:23.588Z,12.58
2019-04-11T14:35:53.010Z,9.98
2019-04-11T14:38:21.167Z,13.55
2019-04-11T14:41:04.898Z,13.08
2019-04-11T14:43:43.749Z,13.13
2019-04-11T14:46:28.915Z,11.60
2019-04-11T14:48:56.382Z,10.68
2019-04-11T14:51:27.488Z,13.83
2019-04-11T14:56:55.897Z,14.65
2019-04-11T14:59:24.955Z,8.23
2019-04-11T15:01:53.558Z,9.58
2019-04-11T15:04:38.287Z,11.45
2019-04-11T15:07:05.374Z,16.82
2019-04-11T15:09:50.279Z,11.57
2019-04-11T15:12:18.448Z,11.70
2019-04-11T15:14:48.537Z,11.45
2019-04-11T15:17:16.473Z,11.05
2019-04-11T15:19:44.537Z,12.33
2019-04-11T15:22:21.824Z,13.13
2019-04-11T15:24:49.896Z,10.53
2019-04-11T15:27:23.660Z,12.50
2019-04-11T15:29:49.840Z,12.37
2019-04-11T15:32:27.274Z,10.13
2019-04-11T15:34:53.997Z,10.18
2019-04-11T15:37:22.561Z,12.30
2019-04-11T15:39:53.483Z,11.15
2019-04-11T15:42:27.671Z,13.70
2019-04-11T15:45:14.062Z,10.63
2019-04-11T15:47:59.017Z,10.00
2019-04-11T15:50:43.653Z,12.00
2019-04-11T15:53:11.639Z,11.08
2019-04-11T15:55:42.855Z,10.43
2019-04-11T16:00:48.709Z,23.73
2019-04-11T16:03:15.041Z,10.72
2019-04-11T16:05:49.259Z,10.30
2019-04-11T16:08:19.117Z,11.28
2019-04-11T16:10:47.258Z,10.58
2019-04-11T16:13:15.289Z,9.60
2019-04-11T16:15:43.435Z,13.40
2019-04-11T16:18:28.290Z,10.43
2019-04-11T16:21:18.346Z,9.93
2019-04-11T16:23:45.981Z,11.57
2019-04-11T16:26:14.173Z,11.20
2019-04-11T16:28:45.264Z,12.65
2019-04-11T16:33:46.892Z,10.70
2019-04-11T16:36:18.054Z,11.70
2019-04-11T16:41:25.038Z,10.75
2019-04-11T16:44:10.040Z,10.13
2019-04-11T16:46:38.116Z,10.63
2019-04-11T16:49:04.526Z,10.80
2019-04-11T16:51:31.428Z,10.72
2019-04-11T16:53:58.067Z,10.88
2019-04-11T16:56:24.316Z,14.30
2019-04-11T16:58:50.530Z,12.50
2019-04-11T17:01:16.927Z,12.55
2019-04-11T17:03:44.089Z,8.88
2019-04-11T17:06:12.494Z,10.10
2019-04-11T17:08:46.574Z,11.57
2019-04-11T17:11:14.715Z,13.13
2019-04-11T17:13:41.223Z,9.70
2019-04-11T17:16:09.542Z,12.88
2019-04-11T17:18:35.896Z,13.10
2019-04-11T17:21:02.294Z,10.65
2019-04-11T17:23:28.915Z,10.18
2019-04-11T17:25:55.239Z,10.75
2019-04-11T17:28:23.052Z,10.65
2019-04-11T17:30:49.738Z,14.98
2019-04-11T17:33:17.159Z,15.70
2019-04-11T17:35:43.659Z,13.53
2019-04-11T17:38:10.066Z,10.15
2019-04-11T17:40:39.426Z,8.53
2019-04-11T17:43:04.628Z,15.05
2019-04-11T17:45:31.454Z,11.70
2019-04-11T17:47:59.275Z,15.03
2019-04-11T17:50:25.662Z,10.93
2019-04-11T17:52:54.404Z,10.35
2019-04-11T17:55:23.612Z,10.20
2019-04-11T17:57:48.426Z,9.78
2019-04-11T18:00:17.275Z,11.25
2019-04-11T18:02:46.278Z,11.63
2019-04-11T18:05:16.697Z,8.78
2019-04-11T18:07:41.541Z,11.55
2019-04-11T18:10:08.329Z,8.65
2019-04-11T18:12:34.625Z,11.97
2019-04-11T18:15:02.327Z,9.43
2019-04-11T18:17:29.593Z,9.73
2019-04-11T18:19:55.885Z,9.20
2019-04-11T18:22:22.166Z,11.18
2019-04-11T18:24:50.207Z,9.78
2019-04-11T18:27:17.096Z,9.18
2019-04-11T18:29:43.353Z,10.98
2019-04-11T18:32:09.721Z,8.15
2019-04-11T18:34:36.113Z,12.33
2019-04-11T18:37:02.738Z,11.93
2019-04-11T18:39:28.859Z,13.05
2019-04-11T18:41:57.555Z,11.20
2019-04-11T18:44:23.115Z,11.63
2019-04-11T18:46:49.370Z,9.83
2019-04-11T18:49:15.572Z,10.55
2019-04-11T18:51:41.889Z,9.33
2019-04-11T18:54:08.104Z,10.90
2019-04-11T18:56:34.399Z,21.40
2019-04-11T18:59:03.449Z,8.88
2019-04-11T19:01:29.021Z,9.50
2019-04-11T19:03:55.216Z,6.15
2019-04-11T19:06:27.749Z,8.85
2019-04-11T19:08:49.691Z,9.28
2019-04-11T19:11:16.363Z,9.25
2019-04-11T19:13:46.737Z,8.30
2019-04-11T19:16:10.973Z,9.65
2019-04-11T19:18:39.409Z,9.38
2019-04-11T19:21:05.763Z,8.68
2019-04-11T19:23:32.009Z,7.47
2019-04-11T19:25:58.234Z,6.33
2019-04-11T19:28:25.214Z,8.38
2019-04-11T19:30:54.024Z,7.53
2019-04-11T19:33:20.224Z,9.50
2019-04-11T19:35:46.560Z,7.67
2019-04-11T19:38:26.195Z,8.83
2019-04-11T19:40:52.620Z,13.08
2019-04-11T19:43:19.641Z,14.73
2019-04-11T19:45:49.837Z,9.15
2019-04-11T19:48:14.102Z,8.10
2019-04-11T19:50:40.368Z,8.33
2019-04-11T19:53:07.545Z,6.40
2019-04-11T19:55:47.690Z,6.25
2019-04-11T19:58:15.625Z,6.53
2019-04-11T20:00:42.000Z,15.95
2019-04-11T20:03:08.959Z,7.45
2019-04-11T20:05:35.678Z,6.65
2019-04-11T20:08:01.958Z,6.25
2019-04-11T20:10:30.611Z,8.55
2019-04-11T20:12:56.343Z,6.28
2019-04-11T20:15:22.610Z,7.08
2019-04-11T20:17:52.029Z,8.50
2019-04-11T20:20:17.024Z,8.48
2019-04-11T20:22:43.238Z,7.45
2019-04-11T20:25:09.622Z,7.22
2019-04-11T20:27:36.076Z,7.08
2019-04-11T20:30:04.818Z,6.80
2019-04-11T20:32:33.160Z,7.10
2019-04-11T20:34:59.653Z,6.22
2019-04-11T20:37:26.070Z,6.58
2019-04-11T20:39:52.375Z,7.85
2019-04-11T20:42:23.793Z,7.80
2019-04-11T20:44:49.487Z,6.62
2019-04-11T20:47:16.891Z,6.78
2019-04-11T20:49:47.852Z,7.20
2019-04-11T20:52:14.358Z,8.55
2019-04-11T20:54:40.633Z,6.67
2019-04-11T20:57:06.944Z,7.55
2019-04-11T20:59:34.877Z,7.50
2019-04-11T21:02:01.430Z,5.97
2019-04-11T21:04:27.762Z,7.62
2019-04-11T21:06:54.035Z,8.48
2019-04-11T21:09:20.249Z,10.43
2019-04-11T21:11:46.421Z,7.50
2019-04-11T21:14:12.633Z,6.62
2019-04-11T21:16:38.810Z,6.90
2019-04-11T21:19:05.066Z,8.85
2019-04-11T21:21:31.284Z,9.18
2019-04-11T21:23:57.941Z,6.95
2019-04-11T21:26:28.745Z,7.20
2019-04-11T21:28:53.836Z,8.95
2019-04-11T21:31:20.111Z,8.73
2019-04-11T21:33:47.285Z,9.83
2019-04-11T21:36:13.494Z,8.43
2019-04-11T21:38:39.658Z,7.20
2019-04-11T21:41:06.670Z,7.58
2019-04-11T21:43:35.936Z,7.87
2019-04-11T21:46:01.235Z,7.58
2019-04-11T21:48:27.352Z,7.05
2019-04-11T21:50:53.706Z,7.67
2019-04-11T21:53:19.809Z,9.65
2019-04-11T21:55:47.695Z,8.80
2019-04-11T21:58:14.195Z,7.95
2019-04-11T22:00:44.823Z,9.00
2019-04-11T22:03:12.950Z,7.22
2019-04-11T22:05:39.353Z,7.62
2019-04-11T22:08:05.550Z,8.00
2019-04-11T22:10:31.964Z,7.80
2019-04-11T22:12:58.343Z,7.60
2019-04-11T22:15:24.547Z,7.17
2019-04-11T22:17:50.660Z,7.45
2019-04-11T22:20:17.418Z,7.92
2019-04-11T22:22:43.731Z,7.47
2019-04-11T22:25:10.068Z,7.03
2019-04-11T22:27:36.164Z,8.38
2019-04-11T22:30:05.948Z,7.12
2019-04-11T22:32:32.142Z,8.05
2019-04-11T22:34:59.208Z,7.50
2019-04-11T22:37:27.735Z,14.55
2019-04-11T22:39:54.270Z,9.78
2019-04-11T22:42:20.482Z,10.45
2019-04-11T22:44:46.665Z,16.10
2019-04-11T22:47:12.944Z,7.80
2019-04-11T22:49:39.954Z,6.80
2019-04-11T22:52:06.518Z,8.68
2019-04-11T22:54:32.677Z,8.93
2019-04-11T22:56:59.025Z,7.60
2019-04-11T22:59:25.232Z,6.67
2019-04-11T23:01:53.166Z,8.23
2019-04-11T23:04:19.310Z,9.35
2019-04-11T23:06:47.118Z,8.85
2019-04-11T23:09:13.757Z,8.08
2019-04-11T23:11:39.979Z,6.47
2019-04-11T23:14:06.061Z,8.55
2019-04-11T23:16:32.280Z,8.40
2019-04-11T23:18:59.425Z,14.33
2019-04-11T23:21:25.635Z,8.20
2019-04-11T23:23:51.785Z,7.28
2019-04-11T23:26:18.009Z,8.80
2019-04-11T23:28:46.906Z,7.37
2019-04-11T23:31:13.592Z,8.65
2019-04-11T23:33:39.735Z,7.20
2019-04-11T23:36:05.999Z,7.95
2019-04-11T23:38:32.357Z,10.00
2019-04-11T23:40:58.534Z,8.63
2019-04-11T23:43:24.804Z,9.45
2019-04-11T23:45:51.736Z,7.47
2019-04-11T23:48:18.037Z,8.30
2019-04-11T23:50:44.314Z,7.65
2019-04-11T23:53:10.425Z,10.18
2019-04-11T23:55:36.641Z,8.35
2019-04-11T23:58:02.896Z,9.08
